createdAt,value
2023-02-23T00:02:05.783Z,96121.84
2023-02-23T00:04:33.977Z,96111.75
2023-02-23T00:07:00.778Z,96118.19
2023-02-23T00:09:35.086Z,96114.56
2023-02-23T00:12:07.608Z,96118.19
2023-02-23T00:14:37.587Z,96121.03
2023-02-23T00:17:04.999Z,96116.59
2023-02-23T00:19:33.310Z,96120.19
2023-02-23T00:22:01.080Z,96109.91
2023-02-23T00:24:28.015Z,96115.94
2023-02-23T00:26:55.162Z,96111.72
2023-02-23T00:29:24.742Z,96114.16
2023-02-23T00:31:52.451Z,96114.16
2023-02-23T00:34:21.568Z,96116.94
2023-02-23T00:36:55.260Z,96124.19
2023-02-23T00:39:26.334Z,96119.72
2023-02-23T00:41:55.084Z,96118.91
2023-02-23T00:44:23.741Z,96121.28
2023-02-23T00:46:52.345Z,96118.50
2023-02-23T00:49:22.259Z,96121.75
2023-02-23T00:51:49.454Z,96122.16
2023-02-23T00:54:17.657Z,96119.34
2023-02-23T00:56:45.304Z,96120.34
2023-02-23T00:59:13.539Z,96118.56
2023-02-23T01:01:41.943Z,96118.94
2023-02-23T01:04:10.645Z,96117.53
2023-02-23T01:06:39.060Z,96115.72
2023-02-23T01:09:13.442Z,96114.72
2023-02-23T01:11:41.498Z,96118.56
2023-02-23T01:14:10.146Z,96116.56
2023-02-23T01:16:38.849Z,96115.94
2023-02-23T01:19:06.380Z,96110.84
2023-02-23T01:21:37.172Z,96116.03
2023-02-23T01:24:05.262Z,96112.78
2023-02-23T01:26:35.276Z,96106.28
2023-02-23T01:29:08.566Z,96111.63
2023-02-23T01:31:37.593Z,96112.47
2023-02-23T01:34:06.026Z,96110.88
2023-02-23T01:36:38.901Z,96107.66
2023-02-23T01:39:09.058Z,96107.47
2023-02-23T01:41:37.247Z,96104.44
2023-02-23T01:44:13.226Z,96112.09
2023-02-23T01:46:46.171Z,96103.06
2023-02-23T01:49:20.029Z,96103.69
2023-02-23T01:51:55.745Z,96109.31
2023-02-23T01:54:39.244Z,96112.91
2023-02-23T01:57:07.974Z,96113.56
2023-02-23T01:59:42.553Z,96105.13
2023-02-23T02:02:09.650Z,96104.09
2023-02-23T02:04:45.489Z,96108.56
2023-02-23T02:07:20.277Z,96107.38
2023-02-23T02:10:07.366Z,96104.13
2023-02-23T02:12:34.386Z,96092.22
2023-02-23T02:15:04.832Z,96097.25
2023-02-23T02:18:23.385Z,96098.50
2023-02-23T02:21:20.611Z,96098.53
2023-02-23T02:23:57.021Z,96100.34
2023-02-23T02:27:13.493Z,96096.66
2023-02-23T02:30:34.364Z,96099.31
2023-02-23T02:33:58.256Z,96094.84
2023-02-23T02:37:09.995Z,96095.63
2023-02-23T02:39:55.014Z,96091.84
2023-02-23T02:42:36.585Z,96091.63
2023-02-23T02:45:15.880Z,96093.63
2023-02-23T02:47:57.391Z,96096.47
2023-02-23T02:50:51.419Z,96090.00
2023-02-23T02:53:41.516Z,96094.44
2023-02-23T02:56:08.837Z,96092.78
2023-02-23T02:58:38.920Z,96097.03
2023-02-23T03:01:33.270Z,96100.06
2023-02-23T03:04:36.114Z,96096.41
2023-02-23T03:08:10.102Z,96095.41
2023-02-23T03:11:08.614Z,96089.56
2023-02-23T03:14:18.563Z,96099.63
2023-02-23T03:17:38.680Z,96102.44
2023-02-23T03:20:45.243Z,96097.00
2023-02-23T03:23:44.618Z,96098.41
2023-02-23T03:26:38.479Z,96110.09
2023-02-23T03:29:50.631Z,96112.53
2023-02-23T03:32:53.176Z,96112.47
2023-02-23T03:35:53.509Z,96104.91
2023-02-23T03:38:55.915Z,96110.78
2023-02-23T03:41:44.240Z,96111.59
2023-02-23T03:44:37.170Z,96112.03
2023-02-23T03:47:23.907Z,96113.63
2023-02-23T03:50:10.036Z,96129.38
2023-02-23T03:53:03.185Z,96121.91
2023-02-23T03:56:00.576Z,96126.53
2023-02-23T03:58:57.023Z,96125.31
2023-02-23T04:01:45.302Z,96122.53
2023-02-23T04:04:30.855Z,96118.50
2023-02-23T04:07:19.868Z,96119.50
2023-02-23T04:10:05.698Z,96116.88
2023-02-23T04:13:15.586Z,96118.50
2023-02-23T04:16:01.649Z,96128.56
2023-02-23T04:18:31.421Z,96122.91
2023-02-23T04:20:59.381Z,96130.16
2023-02-23T04:23:27.501Z,96130.16
2023-02-23T04:25:55.597Z,96131.19
2023-02-23T04:28:25.719Z,96130.94
2023-02-23T04:30:52.895Z,96128.16
2023-02-23T04:33:22.063Z,96130.94
2023-02-23T04:35:49.357Z,96139.06
2023-02-23T04:38:16.199Z,96134.19
2023-02-23T04:40:43.087Z,96130.59
2023-02-23T04:43:13.094Z,96132.41
2023-02-23T04:45:40.949Z,96127.38
2023-02-23T04:48:08.480Z,96126.59
2023-02-23T04:50:35.559Z,96133.09
2023-02-23T04:53:02.418Z,96121.34
2023-02-23T04:55:29.303Z,96124.97
2023-02-23T04:58:01.370Z,96129.44
2023-02-23T05:00:29.516Z,96132.25
2023-02-23T05:02:57.613Z,96125.41
2023-02-23T05:05:24.619Z,96135.28
2023-02-23T05:07:51.527Z,96128.59
2023-02-23T05:10:18.444Z,96123.75
2023-02-23T05:12:46.037Z,96126.88
2023-02-23T05:15:12.929Z,96135.31
2023-02-23T05:17:43.907Z,96127.25
2023-02-23T05:20:13.319Z,96133.69
2023-02-23T05:22:40.743Z,96135.66
2023-02-23T05:25:10.234Z,96133.78
2023-02-23T05:27:37.382Z,96136.78
2023-02-23T05:30:07.777Z,96131.53
2023-02-23T05:32:34.848Z,96138.81
2023-02-23T05:35:02.592Z,96146.41
2023-02-23T05:37:29.487Z,96145.19
2023-02-23T05:39:56.325Z,96137.44
2023-02-23T05:42:23.159Z,96144.31
2023-02-23T05:44:50.004Z,96138.47
2023-02-23T05:47:16.831Z,96142.69
2023-02-23T05:49:45.357Z,96143.13
2023-02-23T05:52:12.255Z,96144.81
2023-02-23T05:54:39.078Z,96146.81
2023-02-23T05:57:05.932Z,96146.47
2023-02-23T05:59:32.737Z,96149.91
2023-02-23T06:01:59.563Z,96148.84
2023-02-23T06:04:26.389Z,96148.03
2023-02-23T06:06:53.235Z,96148.84
2023-02-23T06:09:20.113Z,96148.53
2023-02-23T06:11:46.956Z,96149.97
2023-02-23T06:14:13.986Z,96153.13
2023-02-23T06:16:40.938Z,96147.31
2023-02-23T06:19:07.941Z,96154.00
2023-02-23T06:21:34.882Z,96154.03
2023-02-23T06:24:02.465Z,96155.28
2023-02-23T06:26:29.711Z,96161.94
2023-02-23T06:28:57.152Z,96162.09
2023-02-23T06:31:24.190Z,96168.19
2023-02-23T06:33:51.281Z,96176.28
2023-02-23T06:36:18.068Z,96170.25
2023-02-23T06:38:45.694Z,96177.97
2023-02-23T06:41:13.437Z,96178.41
2023-02-23T06:43:40.283Z,96180.47
2023-02-23T06:46:07.480Z,96187.00
2023-02-23T06:48:35.489Z,96182.38
2023-02-23T06:51:03.153Z,96178.59
2023-02-23T06:53:30.774Z,96182.03
2023-02-23T06:55:57.832Z,96181.84
2023-02-23T06:58:24.852Z,96178.63
2023-02-23T07:00:51.879Z,96187.91
2023-02-23T07:03:19.233Z,96183.88
2023-02-23T07:05:46.200Z,96187.91
2023-02-23T07:08:13.000Z,96188.16
2023-02-23T07:10:39.890Z,96195.22
2023-02-23T07:13:06.787Z,96198.06
2023-02-23T07:15:37.885Z,96191.56
2023-02-23T07:18:04.941Z,96191.56
2023-02-23T07:20:33.089Z,96194.81
2023-02-23T07:23:03.680Z,96199.25
2023-02-23T07:25:30.995Z,96192.38
2023-02-23T07:27:59.118Z,96194.81
2023-02-23T07:30:26.447Z,96190.16
2023-02-23T07:32:54.173Z,96187.06
2023-02-23T07:35:21.155Z,96191.09
2023-02-23T07:37:48.084Z,96189.19
2023-02-23T07:40:15.038Z,96181.28
2023-02-23T07:42:41.920Z,96194.59
2023-02-23T07:45:09.467Z,96191.25
2023-02-23T07:47:37.493Z,96187.13
2023-02-23T07:50:07.990Z,96196.75
2023-02-23T07:52:34.890Z,96189.38
2023-02-23T07:55:01.727Z,96199.47
2023-02-23T07:57:28.618Z,96195.13
2023-02-23T07:59:55.451Z,96195.63
2023-02-23T08:02:22.287Z,96201.56
2023-02-23T08:04:49.234Z,96202.97
2023-02-23T08:07:16.208Z,96197.75
2023-02-23T08:09:43.039Z,96204.13
2023-02-23T08:12:10.471Z,96202.50
2023-02-23T08:14:37.370Z,96206.34
2023-02-23T08:17:04.217Z,96208.00
2023-02-23T08:19:31.470Z,96208.47
2023-02-23T08:21:58.275Z,96207.75
2023-02-23T08:24:26.604Z,96219.66
2023-02-23T08:26:53.536Z,96214.50
2023-02-23T08:29:21.422Z,96213.66
2023-02-23T08:31:48.472Z,96206.28
2023-02-23T08:34:15.342Z,96206.53
2023-02-23T08:36:45.388Z,96210.09
2023-02-23T08:39:13.513Z,96206.91
2023-02-23T08:41:41.298Z,96203.13
2023-02-23T08:44:08.423Z,96209.72
2023-02-23T08:46:35.278Z,96201.72
2023-02-23T08:49:02.943Z,96205.44
2023-02-23T08:51:29.793Z,96204.88
2023-02-23T08:53:57.361Z,96204.28
2023-02-23T08:56:25.306Z,96205.00
2023-02-23T08:58:53.115Z,96205.94
2023-02-23T09:01:22.355Z,96203.00
2023-02-23T09:03:50.225Z,96209.91
2023-02-23T09:06:20.850Z,96208.13
2023-02-23T09:08:47.824Z,96195.47
2023-02-23T09:11:14.695Z,96193.94
2023-02-23T09:13:41.547Z,96198.47
2023-02-23T09:16:08.576Z,96195.56
2023-02-23T09:18:36.492Z,96200.19
2023-02-23T09:21:06.980Z,96199.09
2023-02-23T09:23:35.374Z,96198.72
2023-02-23T09:26:08.370Z,96200.41
2023-02-23T09:28:35.702Z,96196.22
2023-02-23T09:31:15.406Z,96207.31
2023-02-23T09:33:42.715Z,96207.09
2023-02-23T09:36:21.071Z,96203.81
2023-02-23T09:38:55.175Z,96196.84
2023-02-23T09:41:59.529Z,96209.44
2023-02-23T09:44:48.440Z,96206.47
2023-02-23T09:47:41.459Z,96207.56
2023-02-23T09:50:27.654Z,96200.75
2023-02-23T09:53:04.960Z,96213.88
2023-02-23T09:55:32.738Z,96201.84
2023-02-23T09:58:09.377Z,96211.50
2023-02-23T10:00:44.637Z,96213.09
2023-02-23T10:03:20.797Z,96218.34
2023-02-23T10:05:56.267Z,96214.00
2023-02-23T10:09:03.932Z,96211.78
2023-02-23T10:11:48.539Z,96211.00
2023-02-23T10:14:42.457Z,96213.41
2023-02-23T10:17:32.933Z,96209.50
2023-02-23T10:20:27.410Z,96210.53
2023-02-23T10:22:58.390Z,96213.22
2023-02-23T10:25:28.769Z,96213.81
2023-02-23T10:27:58.356Z,96215.25
2023-02-23T10:30:32.135Z,96219.94
2023-02-23T10:33:16.970Z,96216.91
2023-02-23T10:35:44.999Z,96219.75
2023-02-23T10:38:19.414Z,96208.66
2023-02-23T10:40:51.278Z,96213.88
2023-02-23T10:43:18.071Z,96212.31
2023-02-23T10:45:51.563Z,96214.69
2023-02-23T10:48:29.975Z,96219.47
2023-02-23T10:51:02.931Z,96219.13
2023-02-23T10:53:37.430Z,96213.19
2023-02-23T10:56:18.354Z,96219.63
2023-02-23T10:58:51.977Z,96218.69
2023-02-23T11:02:00.449Z,96211.75
2023-02-23T11:04:31.720Z,96208.91
2023-02-23T11:07:37.363Z,96209.63
2023-02-23T11:10:27.667Z,96204.69
2023-02-23T11:12:54.457Z,96201.03
2023-02-23T11:15:49.489Z,96205.00
2023-02-23T11:18:23.442Z,96203.75
2023-02-23T11:20:51.540Z,96199.78
2023-02-23T11:23:29.230Z,96197.56
2023-02-23T11:26:00.570Z,96188.16
2023-02-23T11:28:41.596Z,96190.59
2023-02-23T11:31:28.600Z,96185.94
2023-02-23T11:33:56.402Z,96186.44
2023-02-23T11:36:27.975Z,96182.22
2023-02-23T11:39:23.430Z,96172.13
2023-02-23T11:42:17.865Z,96172.13
2023-02-23T11:45:07.489Z,96173.47
2023-02-23T11:47:40.243Z,96169.09
2023-02-23T11:50:08.481Z,96165.38
2023-02-23T11:52:36.482Z,96165.00
2023-02-23T11:55:07.980Z,96158.75
2023-02-23T11:57:36.294Z,96157.22
2023-02-23T12:00:13.055Z,96161.75
2023-02-23T12:03:00.397Z,96153.03
2023-02-23T12:05:32.093Z,96157.88
2023-02-23T12:08:17.456Z,96158.88
2023-02-23T12:10:51.999Z,96151.78
2023-02-23T12:13:41.860Z,96154.06
2023-02-23T12:16:39.082Z,96148.09
2023-02-23T12:19:23.477Z,96150.22
2023-02-23T12:22:04.290Z,96143.75
2023-02-23T12:25:04.940Z,96140.88
2023-02-23T12:27:45.117Z,96144.97
2023-02-23T12:30:25.765Z,96144.16
2023-02-23T12:33:12.484Z,96148.03
2023-02-23T12:36:03.253Z,96134.94
2023-02-23T12:38:56.317Z,96131.06
2023-02-23T12:41:48.318Z,96137.41
2023-02-23T12:44:35.588Z,96129.84
2023-02-23T12:47:21.870Z,96127.81
2023-02-23T12:50:07.391Z,96131.44
2023-02-23T12:52:41.212Z,96117.44
2023-02-23T12:55:13.779Z,96122.44
2023-02-23T12:57:54.920Z,96115.63
2023-02-23T13:00:39.986Z,96118.69
2023-02-23T13:03:48.921Z,96113.44
2023-02-23T13:06:36.806Z,96114.50
2023-02-23T13:09:20.914Z,96103.63
2023-02-23T13:12:17.464Z,96109.22
2023-02-23T13:14:58.527Z,96115.63
2023-02-23T13:17:41.089Z,96108.03
2023-02-23T13:20:33.527Z,96100.00
2023-02-23T13:23:15.252Z,96102.59
2023-02-23T13:26:11.494Z,96099.59
2023-02-23T13:29:09.204Z,96105.34
2023-02-23T13:31:40.011Z,96099.66
2023-02-23T13:34:31.427Z,96099.72
2023-02-23T13:37:02.160Z,96097.09
2023-02-23T13:39:59.352Z,96098.00
2023-02-23T13:43:29.027Z,96096.34
2023-02-23T13:46:24.325Z,96086.88
2023-02-23T13:49:02.363Z,96075.38
2023-02-23T13:51:37.913Z,96086.88
2023-02-23T13:54:24.326Z,96091.63
2023-02-23T13:56:55.894Z,96085.03
2023-02-23T13:59:29.991Z,96082.31
2023-02-23T14:02:07.581Z,96094.19
2023-02-23T14:04:42.343Z,96094.38
2023-02-23T14:07:09.306Z,96083.41
2023-02-23T14:09:42.834Z,96083.47
2023-02-23T14:12:40.620Z,96093.78
2023-02-23T14:15:26.266Z,96089.59
2023-02-23T14:18:18.830Z,96075.81
2023-02-23T14:21:18.186Z,96078.06
2023-02-23T14:23:48.157Z,96081.53
2023-02-23T14:26:29.708Z,96080.97
2023-02-23T14:29:21.651Z,96083.03
2023-02-23T14:32:00.794Z,96080.34
2023-02-23T14:34:51.747Z,96081.91
2023-02-23T14:37:42.287Z,96088.28
2023-02-23T14:40:24.093Z,96075.84
2023-02-23T14:42:55.696Z,96084.28
2023-02-23T14:45:28.809Z,96088.25
2023-02-23T14:48:05.935Z,96082.09
2023-02-23T14:50:39.014Z,96081.41
2023-02-23T14:53:16.504Z,96073.34
2023-02-23T14:55:45.468Z,96082.25
2023-02-23T14:58:31.367Z,96075.44
2023-02-23T15:00:58.231Z,96071.81
2023-02-23T15:03:25.404Z,96068.47
2023-02-23T15:05:59.124Z,96075.72
2023-02-23T15:08:29.305Z,96068.97
2023-02-23T15:11:06.716Z,96078.59
2023-02-23T15:16:12.700Z,96078.66
2023-02-23T15:18:43.427Z,96072.69
2023-02-23T15:21:20.047Z,96071.34
2023-02-23T15:23:52.983Z,96074.81
2023-02-23T15:26:31.795Z,96077.16
2023-02-23T15:29:10.821Z,96068.00
2023-02-23T15:31:40.936Z,96062.56
2023-02-23T15:34:11.283Z,96074.88
2023-02-23T15:36:41.276Z,96071.28
2023-02-23T15:39:16.729Z,96068.53
2023-02-23T15:41:48.383Z,96072.81
2023-02-23T15:44:27.311Z,96079.00
2023-02-23T15:47:01.015Z,96071.16
2023-02-23T15:49:35.615Z,96071.47
2023-02-23T15:52:07.563Z,96073.09
2023-02-23T15:54:59.861Z,96073.09
2023-02-23T15:57:33.553Z,96073.94
2023-02-23T16:00:11.704Z,96067.13
2023-02-23T16:02:41.054Z,96064.09
2023-02-23T16:05:30.388Z,96068.91
2023-02-23T16:08:16.451Z,96059.94
2023-02-23T16:10:46.825Z,96067.78
2023-02-23T16:13:20.396Z,96071.19
2023-02-23T16:15:49.060Z,96068.84
2023-02-23T16:18:20.556Z,96063.06
2023-02-23T16:20:56.024Z,96074.56
2023-02-23T16:23:34.275Z,96064.50
2023-02-23T16:26:52.110Z,96068.41
2023-02-23T16:29:32.287Z,96065.50
2023-02-23T16:32:04.103Z,96068.41
2023-02-23T16:34:45.972Z,96071.31
2023-02-23T16:37:20.226Z,96076.97
2023-02-23T16:39:48.034Z,96075.94
2023-02-23T16:42:23.238Z,96067.53
2023-02-23T16:44:50.268Z,96082.59
2023-02-23T16:47:36.657Z,96084.44
2023-02-23T16:50:24.534Z,96087.03
2023-02-23T16:52:53.308Z,96092.72
2023-02-23T16:55:26.086Z,96091.53
2023-02-23T16:58:00.970Z,96091.53
2023-02-23T17:00:31.465Z,96093.94
2023-02-23T17:03:00.652Z,96084.13
2023-02-23T17:05:30.042Z,96096.88
2023-02-23T17:08:01.042Z,96093.19
2023-02-23T17:10:33.434Z,96091.53
2023-02-23T17:13:06.246Z,96098.94
2023-02-23T17:15:39.297Z,96091.00
2023-02-23T17:18:06.733Z,96089.72
2023-02-23T17:20:34.153Z,96095.41
2023-02-23T17:23:05.118Z,96101.91
2023-02-23T17:25:32.550Z,96097.78
2023-02-23T17:28:00.977Z,96104.25
2023-02-23T17:30:30.017Z,96101.63
2023-02-23T17:32:59.270Z,96102.53
2023-02-23T17:35:26.644Z,96097.50
2023-02-23T17:37:54.417Z,96097.94
2023-02-23T17:40:28.626Z,96106.13
2023-02-23T17:42:57.965Z,96107.16
2023-02-23T17:45:25.938Z,96105.97
2023-02-23T17:47:52.945Z,96103.53
2023-02-23T17:50:21.494Z,96098.50
2023-02-23T17:52:49.965Z,96103.97
2023-02-23T17:55:18.257Z,96106.88
2023-02-23T17:57:46.025Z,96110.53
2023-02-23T18:00:16.190Z,96112.75
2023-02-23T18:02:45.043Z,96099.25
2023-02-23T18:05:13.810Z,96104.72
2023-02-23T18:07:40.948Z,96098.88
2023-02-23T18:10:08.928Z,96103.53
2023-02-23T18:12:35.826Z,96104.75
2023-02-23T18:15:02.784Z,96104.53
2023-02-23T18:17:32.425Z,96102.94
2023-02-23T18:20:00.341Z,96102.75
2023-02-23T18:22:27.208Z,96100.50
2023-02-23T18:24:54.761Z,96102.56
2023-02-23T18:27:23.613Z,96097.53
2023-02-23T18:29:50.477Z,96099.34
2023-02-23T18:32:17.491Z,96110.28
2023-02-23T18:34:44.457Z,96101.38
2023-02-23T18:37:11.526Z,96096.91
2023-02-23T18:39:38.343Z,96106.22
2023-02-23T18:42:05.548Z,96109.47
2023-02-23T18:44:35.028Z,96101.78
2023-02-23T18:47:02.434Z,96104.22
2023-02-23T18:49:29.305Z,96094.88
2023-02-23T18:51:56.670Z,96098.53
2023-02-23T18:54:25.904Z,96098.91
2023-02-23T18:56:52.833Z,96102.97
2023-02-23T18:59:19.708Z,96102.72
2023-02-23T19:01:47.877Z,96107.38
2023-02-23T19:04:15.184Z,96102.72
2023-02-23T19:06:44.717Z,96101.69
2023-02-23T19:09:14.580Z,96102.44
2023-02-23T19:11:43.410Z,96098.97
2023-02-23T19:14:18.228Z,96103.19
2023-02-23T19:16:46.696Z,96101.97
2023-02-23T19:19:14.590Z,96100.34
2023-02-23T19:21:41.703Z,96101.13
2023-02-23T19:24:08.745Z,96096.53
2023-02-23T19:26:37.588Z,96107.22
2023-02-23T19:29:05.103Z,96095.50
2023-02-23T19:31:32.428Z,96092.28
2023-02-23T19:33:59.711Z,96095.09
2023-02-23T19:36:31.753Z,96101.31
2023-02-23T19:39:05.877Z,96097.09
2023-02-23T19:41:34.199Z,96103.53
2023-02-23T19:44:01.598Z,96098.47
2023-02-23T19:46:28.988Z,96101.00
2023-02-23T19:48:56.447Z,96098.91
2023-02-23T19:51:23.996Z,96100.72
2023-02-23T19:53:54.702Z,96097.13
2023-02-23T19:56:23.039Z,96093.91
2023-02-23T19:58:49.933Z,96097.53
2023-02-23T20:01:21.000Z,96095.03
2023-02-23T20:03:55.435Z,96100.59
2023-02-23T20:06:26.991Z,96103.91
2023-02-23T20:08:55.344Z,96105.75
2023-02-23T20:11:23.634Z,96100.38
2023-02-23T20:13:52.845Z,96098.66
2023-02-23T20:16:20.623Z,96103.97
2023-02-23T20:18:48.089Z,96100.09
2023-02-23T20:21:19.236Z,96106.97
2023-02-23T20:23:47.459Z,96106.97
2023-02-23T20:26:19.835Z,96104.09
2023-02-23T20:28:46.804Z,96101.63
2023-02-23T20:31:21.689Z,96108.50
2023-02-23T20:33:51.414Z,96094.41
2023-02-23T20:36:20.639Z,96100.25
2023-02-23T20:38:47.667Z,96099.88
2023-02-23T20:41:17.321Z,96099.25
2023-02-23T20:43:44.360Z,96106.00
2023-02-23T20:46:14.578Z,96104.75
2023-02-23T20:48:42.073Z,96099.53
2023-02-23T20:51:12.810Z,96105.63
2023-02-23T20:53:42.073Z,96107.09
2023-02-23T20:56:10.065Z,96101.72
2023-02-23T20:58:37.004Z,96099.34
2023-02-23T21:01:06.576Z,96096.41
2023-02-23T21:03:34.973Z,96095.78
2023-02-23T21:06:02.167Z,96090.97
2023-02-23T21:08:30.269Z,96086.28
2023-02-23T21:10:57.131Z,96087.66
2023-02-23T21:13:26.447Z,96083.59
2023-02-23T21:16:01.037Z,96079.78
2023-02-23T21:18:29.748Z,96081.59
2023-02-23T21:20:57.421Z,96085.63
2023-02-23T21:23:25.395Z,96091.06
2023-02-23T21:25:53.963Z,96093.97
2023-02-23T21:28:21.209Z,96082.50
2023-02-23T21:30:48.122Z,96082.38
2023-02-23T21:33:15.256Z,96084.84
2023-02-23T21:35:42.050Z,96079.59
2023-02-23T21:38:10.404Z,96086.84
2023-02-23T21:40:41.990Z,96083.59
2023-02-23T21:43:09.170Z,96086.03
2023-02-23T21:45:38.904Z,96076.97
2023-02-23T21:48:05.837Z,96076.38
2023-02-23T21:50:32.735Z,96078.38
2023-02-23T21:52:59.571Z,96079.38
2023-02-23T21:55:26.511Z,96085.34
2023-02-23T21:57:53.423Z,96072.66
2023-02-23T22:00:21.656Z,96078.75
2023-02-23T22:02:49.295Z,96074.94
2023-02-23T22:05:18.233Z,96077.13
2023-02-23T22:07:50.673Z,96074.91
2023-02-23T22:10:21.571Z,96071.06
2023-02-23T22:12:50.164Z,96071.50
2023-02-23T22:15:17.175Z,96073.09
2023-02-23T22:17:44.518Z,96069.03
2023-02-23T22:20:12.140Z,96078.31
2023-02-23T22:22:39.013Z,96075.91
2023-02-23T22:25:08.068Z,96069.03
2023-02-23T22:27:35.029Z,96072.09
2023-02-23T22:30:02.116Z,96068.25
2023-02-23T22:32:33.261Z,96069.06
2023-02-23T22:35:01.204Z,96066.88
2023-02-23T22:37:32.002Z,96068.88
2023-02-23T22:40:16.690Z,96063.22
2023-02-23T22:42:48.325Z,96058.56
2023-02-23T22:45:16.231Z,96048.06
2023-02-23T22:47:43.409Z,96058.16
2023-02-23T22:50:13.895Z,96056.13
2023-02-23T22:52:43.125Z,96056.94
2023-02-23T22:55:11.088Z,96053.31
2023-02-23T22:57:39.812Z,96053.28
2023-02-23T23:00:12.923Z,96052.06
2023-02-23T23:02:39.841Z,96050.47
2023-02-23T23:05:08.064Z,96048.06
2023-02-23T23:07:35.270Z,96044.44
2023-02-23T23:10:05.390Z,96048.06
2023-02-23T23:12:34.281Z,96044.81
2023-02-23T23:15:02.017Z,96038.94
2023-02-23T23:17:30.665Z,96037.78
2023-02-23T23:20:00.104Z,96027.47
2023-02-23T23:22:27.615Z,96034.75
2023-02-23T23:24:54.471Z,96022.63
2023-02-23T23:27:21.508Z,96022.63
2023-02-23T23:29:49.144Z,96025.88
2023-02-23T23:32:18.888Z,96024.69
2023-02-23T23:34:49.412Z,96024.50
2023-02-23T23:37:18.842Z,96021.91
2023-02-23T23:39:46.160Z,96025.91
2023-02-23T23:42:13.450Z,96027.13
2023-02-23T23:44:40.275Z,96019.47
2023-02-23T23:47:07.210Z,96025.13
2023-02-23T23:49:39.911Z,96019.31
2023-02-23T23:52:07.015Z,96011.44
2023-02-23T23:54:42.299Z,96011.03
2023-02-23T23:57:11.320Z,96005.97
2023-02-23T23:59:45.633Z,95999.69
